OMAA/AUH METAR and TAF weather

Enter ICAO airport designator
Station Type Date Time Source
OMAA METAR 2021/05/17 21:00 UTC NOAA

OMAA 172100Z 31006KT 9000 NSC 29/27 Q1002 NOSIG


Station Type Date Time Source
OMAA Decoded METAR 2021/05/17 21:00 UTC NOAA

Abu Dhabi International Airport, United Arab Emirates (OMAA) 24-26N 054-39E 27M
May 17, 2021 - 05:00 PM EDT / 2021.05.17 2100 UTC
Wind: from the NW (310 degrees) at 7 MPH (6 KT):0
Visibility: 5 mile(s):0
Temperature: 84 F (29 C)
Dew Point: 80 F (27 C)
Relative Humidity: 88%
Pressure (altimeter): 29.59 in. Hg (1002 hPa)
ob: OMAA 172100Z 31006KT 9000 NSC 29/27 Q1002 NOSIG
cycle: 21

Station Type Date Time Source
OMAA TAF 2021/05/17 18:02 UTC NOAA

TAF OMAA 171700Z 1718/1900 33010KT 8000 NSC
BECMG 1718/1720 06006KT PROB30 1723/1804 3000 HZ
BECMG 1809/1811 34014KT
BECMG 1818/1820 07005KT

Example: see airport list